sensor_id;sensor_type;location;lat;lon;timestamp;P1;durP1;ratioP1;P2;durP2;ratioP2
66163;SDS011;52962;51.088;3.096;2023-04-06T00:02:11;17.52;;;11.45;;
66163;SDS011;52962;51.088;3.096;2023-04-06T00:07:08;14.40;;;9.75;;
66163;SDS011;52962;51.088;3.096;2023-04-06T00:09:36;12.93;;;9.65;;
66163;SDS011;52962;51.088;3.096;2023-04-06T00:12:04;15.93;;;10.93;;
66163;SDS011;52962;51.088;3.096;2023-04-06T00:14:33;14.00;;;10.18;;
66163;SDS011;52962;51.088;3.096;2023-04-06T00:17:03;15.82;;;9.00;;
66163;SDS011;52962;51.088;3.096;2023-04-06T00:19:31;13.27;;;9.13;;
66163;SDS011;52962;51.088;3.096;2023-04-06T00:22:00;14.45;;;9.55;;
66163;SDS011;52962;51.088;3.096;2023-04-06T00:24:28;13.82;;;8.60;;
66163;SDS011;52962;51.088;3.096;2023-04-06T00:26:56;11.13;;;8.35;;
66163;SDS011;52962;51.088;3.096;2023-04-06T00:29:25;11.07;;;8.95;;
66163;SDS011;52962;51.088;3.096;2023-04-06T00:31:53;14.57;;;8.23;;
66163;SDS011;52962;51.088;3.096;2023-04-06T00:34:22;9.55;;;8.20;;
66163;SDS011;52962;51.088;3.096;2023-04-06T00:36:51;9.38;;;8.32;;
66163;SDS011;52962;51.088;3.096;2023-04-06T00:39:19;11.55;;;7.88;;
66163;SDS011;52962;51.088;3.096;2023-04-06T00:41:49;9.02;;;7.40;;
66163;SDS011;52962;51.088;3.096;2023-04-06T00:44:19;12.90;;;8.65;;
66163;SDS011;52962;51.088;3.096;2023-04-06T00:46:47;9.68;;;7.60;;
66163;SDS011;52962;51.088;3.096;2023-04-06T00:51:46;11.30;;;7.43;;
66163;SDS011;52962;51.088;3.096;2023-04-06T00:54:14;12.93;;;7.95;;
66163;SDS011;52962;51.088;3.096;2023-04-06T00:56:43;11.52;;;7.90;;
66163;SDS011;52962;51.088;3.096;2023-04-06T00:59:11;12.23;;;8.80;;
66163;SDS011;52962;51.088;3.096;2023-04-06T01:01:41;12.80;;;8.75;;
66163;SDS011;52962;51.088;3.096;2023-04-06T01:04:25;12.95;;;7.57;;
66163;SDS011;52962;51.088;3.096;2023-04-06T01:06:55;10.15;;;7.82;;
66163;SDS011;52962;51.088;3.096;2023-04-06T01:09:30;9.82;;;8.07;;
66163;SDS011;52962;51.088;3.096;2023-04-06T01:12:03;12.02;;;8.18;;
66163;SDS011;52962;51.088;3.096;2023-04-06T01:14:33;10.00;;;7.55;;
66163;SDS011;52962;51.088;3.096;2023-04-06T01:17:02;10.43;;;8.02;;
66163;SDS011;52962;51.088;3.096;2023-04-06T01:19:32;16.77;;;8.63;;
66163;SDS011;52962;51.088;3.096;2023-04-06T01:24:31;8.32;;;7.47;;
66163;SDS011;52962;51.088;3.096;2023-04-06T01:27:10;11.98;;;8.73;;
66163;SDS011;52962;51.088;3.096;2023-04-06T01:30:14;10.02;;;8.25;;
66163;SDS011;52962;51.088;3.096;2023-04-06T01:32:49;9.00;;;7.38;;
66163;SDS011;52962;51.088;3.096;2023-04-06T01:35:27;10.75;;;7.93;;
66163;SDS011;52962;51.088;3.096;2023-04-06T01:38:10;12.93;;;7.35;;
66163;SDS011;52962;51.088;3.096;2023-04-06T01:40:39;11.25;;;7.55;;
66163;SDS011;52962;51.088;3.096;2023-04-06T01:43:08;10.20;;;6.93;;
66163;SDS011;52962;51.088;3.096;2023-04-06T01:45:51;8.80;;;7.35;;
66163;SDS011;52962;51.088;3.096;2023-04-06T01:48:21;9.88;;;7.68;;
66163;SDS011;52962;51.088;3.096;2023-04-06T01:50:50;9.70;;;7.13;;
66163;SDS011;52962;51.088;3.096;2023-04-06T01:53:24;13.50;;;7.15;;
66163;SDS011;52962;51.088;3.096;2023-04-06T01:56:00;9.77;;;7.28;;
66163;SDS011;52962;51.088;3.096;2023-04-06T01:58:32;8.52;;;7.28;;
66163;SDS011;52962;51.088;3.096;2023-04-06T02:01:01;10.95;;;8.50;;
66163;SDS011;52962;51.088;3.096;2023-04-06T02:03:40;10.82;;;7.93;;
66163;SDS011;52962;51.088;3.096;2023-04-06T02:06:10;9.20;;;7.38;;
66163;SDS011;52962;51.088;3.096;2023-04-06T02:08:40;8.20;;;6.75;;
66163;SDS011;52962;51.088;3.096;2023-04-06T02:11:09;8.68;;;7.55;;
66163;SDS011;52962;51.088;3.096;2023-04-06T02:13:43;10.88;;;7.97;;
66163;SDS011;52962;51.088;3.096;2023-04-06T02:16:11;8.18;;;7.00;;
66163;SDS011;52962;51.088;3.096;2023-04-06T02:18:39;12.55;;;7.72;;
66163;SDS011;52962;51.088;3.096;2023-04-06T02:21:07;11.00;;;8.27;;
66163;SDS011;52962;51.088;3.096;2023-04-06T02:23:36;7.80;;;6.78;;
66163;SDS011;52962;51.088;3.096;2023-04-06T02:26:04;10.43;;;7.05;;
66163;SDS011;52962;51.088;3.096;2023-04-06T02:28:33;9.80;;;8.07;;
66163;SDS011;52962;51.088;3.096;2023-04-06T02:31:01;9.18;;;7.47;;
66163;SDS011;52962;51.088;3.096;2023-04-06T02:33:29;8.07;;;7.35;;
66163;SDS011;52962;51.088;3.096;2023-04-06T02:35:59;9.40;;;7.43;;
66163;SDS011;52962;51.088;3.096;2023-04-06T02:38:28;8.50;;;6.88;;
66163;SDS011;52962;51.088;3.096;2023-04-06T02:40:58;9.80;;;7.13;;
66163;SDS011;52962;51.088;3.096;2023-04-06T02:43:28;9.48;;;7.72;;
66163;SDS011;52962;51.088;3.096;2023-04-06T02:46:05;11.50;;;7.15;;
66163;SDS011;52962;51.088;3.096;2023-04-06T02:48:37;11.15;;;8.00;;
66163;SDS011;52962;51.088;3.096;2023-04-06T02:51:05;9.73;;;7.88;;
66163;SDS011;52962;51.088;3.096;2023-04-06T02:53:35;8.88;;;6.50;;
66163;SDS011;52962;51.088;3.096;2023-04-06T02:56:04;7.03;;;6.32;;
66163;SDS011;52962;51.088;3.096;2023-04-06T02:58:47;17.08;;;8.15;;
66163;SDS011;52962;51.088;3.096;2023-04-06T03:01:17;13.07;;;8.10;;
66163;SDS011;52962;51.088;3.096;2023-04-06T03:03:52;9.85;;;7.28;;
66163;SDS011;52962;51.088;3.096;2023-04-06T03:06:24;11.82;;;7.93;;
66163;SDS011;52962;51.088;3.096;2023-04-06T03:08:56;10.00;;;8.15;;
66163;SDS011;52962;51.088;3.096;2023-04-06T03:11:25;8.57;;;7.20;;
66163;SDS011;52962;51.088;3.096;2023-04-06T03:13:54;10.13;;;7.43;;
66163;SDS011;52962;51.088;3.096;2023-04-06T03:16:23;12.65;;;7.82;;
66163;SDS011;52962;51.088;3.096;2023-04-06T03:18:52;7.68;;;6.53;;
66163;SDS011;52962;51.088;3.096;2023-04-06T03:21:20;8.50;;;7.32;;
66163;SDS011;52962;51.088;3.096;2023-04-06T03:23:51;8.15;;;6.80;;
66163;SDS011;52962;51.088;3.096;2023-04-06T03:26:19;11.63;;;7.22;;
66163;SDS011;52962;51.088;3.096;2023-04-06T03:28:50;10.30;;;7.35;;
66163;SDS011;52962;51.088;3.096;2023-04-06T03:31:23;10.68;;;7.32;;
66163;SDS011;52962;51.088;3.096;2023-04-06T03:33:57;10.65;;;7.60;;
66163;SDS011;52962;51.088;3.096;2023-04-06T03:36:29;8.48;;;7.57;;
66163;SDS011;52962;51.088;3.096;2023-04-06T03:38:59;9.38;;;8.23;;
66163;SDS011;52962;51.088;3.096;2023-04-06T03:41:30;9.90;;;7.32;;
66163;SDS011;52962;51.088;3.096;2023-04-06T03:44:13;9.82;;;7.95;;
66163;SDS011;52962;51.088;3.096;2023-04-06T03:46:44;10.75;;;7.72;;
66163;SDS011;52962;51.088;3.096;2023-04-06T03:49:13;9.43;;;7.65;;
66163;SDS011;52962;51.088;3.096;2023-04-06T03:51:45;8.63;;;7.18;;
66163;SDS011;52962;51.088;3.096;2023-04-06T03:54:13;10.02;;;6.50;;
66163;SDS011;52962;51.088;3.096;2023-04-06T03:56:41;7.22;;;6.53;;
66163;SDS011;52962;51.088;3.096;2023-04-06T03:59:09;8.45;;;7.22;;
66163;SDS011;52962;51.088;3.096;2023-04-06T04:01:38;7.72;;;5.57;;
66163;SDS011;52962;51.088;3.096;2023-04-06T04:04:08;7.68;;;5.68;;
66163;SDS011;52962;51.088;3.096;2023-04-06T04:06:36;6.15;;;5.57;;
66163;SDS011;52962;51.088;3.096;2023-04-06T04:09:06;6.75;;;6.05;;
66163;SDS011;52962;51.088;3.096;2023-04-06T04:14:03;6.72;;;4.95;;
66163;SDS011;52962;51.088;3.096;2023-04-06T04:16:31;7.15;;;5.40;;
66163;SDS011;52962;51.088;3.096;2023-04-06T04:19:00;4.50;;;4.07;;
66163;SDS011;52962;51.088;3.096;2023-04-06T04:21:30;5.85;;;4.80;;
66163;SDS011;52962;51.088;3.096;2023-04-06T04:24:04;5.63;;;3.38;;
66163;SDS011;52962;51.088;3.096;2023-04-06T04:26:35;4.82;;;3.92;;
66163;SDS011;52962;51.088;3.096;2023-04-06T04:29:04;7.20;;;4.32;;
66163;SDS011;52962;51.088;3.096;2023-04-06T04:31:35;7.63;;;4.55;;
66163;SDS011;52962;51.088;3.096;2023-04-06T04:34:06;4.78;;;4.15;;
66163;SDS011;52962;51.088;3.096;2023-04-06T04:36:36;5.25;;;4.75;;
66163;SDS011;52962;51.088;3.096;2023-04-06T04:39:08;5.88;;;3.78;;
66163;SDS011;52962;51.088;3.096;2023-04-06T04:41:40;4.00;;;3.60;;
66163;SDS011;52962;51.088;3.096;2023-04-06T04:44:11;5.05;;;3.28;;
66163;SDS011;52962;51.088;3.096;2023-04-06T04:46:39;3.83;;;3.53;;
66163;SDS011;52962;51.088;3.096;2023-04-06T04:49:10;5.15;;;3.67;;
66163;SDS011;52962;51.088;3.096;2023-04-06T04:51:41;4.78;;;3.38;;
66163;SDS011;52962;51.088;3.096;2023-04-06T04:54:20;4.07;;;3.47;;
66163;SDS011;52962;51.088;3.096;2023-04-06T04:56:48;5.03;;;3.90;;
66163;SDS011;52962;51.088;3.096;2023-04-06T04:59:33;3.63;;;3.33;;
66163;SDS011;52962;51.088;3.096;2023-04-06T05:02:11;3.28;;;2.92;;
66163;SDS011;52962;51.088;3.096;2023-04-06T05:05:09;3.30;;;3.00;;
66163;SDS011;52962;51.088;3.096;2023-04-06T05:07:40;2.95;;;2.45;;
66163;SDS011;52962;51.088;3.096;2023-04-06T05:10:14;3.35;;;3.05;;
66163;SDS011;52962;51.088;3.096;2023-04-06T05:12:51;2.75;;;2.55;;
66163;SDS011;52962;51.088;3.096;2023-04-06T05:15:20;3.03;;;2.70;;
66163;SDS011;52962;51.088;3.096;2023-04-06T05:17:53;4.05;;;3.38;;
66163;SDS011;52962;51.088;3.096;2023-04-06T05:20:28;3.63;;;3.10;;
66163;SDS011;52962;51.088;3.096;2023-04-06T05:22:59;3.83;;;2.95;;
66163;SDS011;52962;51.088;3.096;2023-04-06T05:25:29;3.42;;;3.10;;
66163;SDS011;52962;51.088;3.096;2023-04-06T05:28:05;3.35;;;3.05;;
66163;SDS011;52962;51.088;3.096;2023-04-06T05:30:36;3.60;;;2.92;;
66163;SDS011;52962;51.088;3.096;2023-04-06T05:33:04;2.97;;;2.55;;
66163;SDS011;52962;51.088;3.096;2023-04-06T05:35:46;3.55;;;2.75;;
66163;SDS011;52962;51.088;3.096;2023-04-06T05:38:15;3.22;;;2.92;;
66163;SDS011;52962;51.088;3.096;2023-04-06T05:40:44;2.90;;;2.65;;
66163;SDS011;52962;51.088;3.096;2023-04-06T05:43:15;3.17;;;2.88;;
66163;SDS011;52962;51.088;3.096;2023-04-06T05:45:52;3.15;;;2.85;;
66163;SDS011;52962;51.088;3.096;2023-04-06T05:48:20;3.42;;;2.88;;
66163;SDS011;52962;51.088;3.096;2023-04-06T05:53:21;2.50;;;2.30;;
66163;SDS011;52962;51.088;3.096;2023-04-06T05:55:55;3.10;;;2.80;;
66163;SDS011;52962;51.088;3.096;2023-04-06T05:58:25;1.90;;;1.80;;
66163;SDS011;52962;51.088;3.096;2023-04-06T06:00:56;2.95;;;2.60;;
66163;SDS011;52962;51.088;3.096;2023-04-06T06:03:28;3.38;;;2.78;;
66163;SDS011;52962;51.088;3.096;2023-04-06T06:06:00;5.05;;;2.63;;
66163;SDS011;52962;51.088;3.096;2023-04-06T06:09:01;1.42;;;1.33;;
66163;SDS011;52962;51.088;3.096;2023-04-06T06:11:34;2.17;;;1.98;;
66163;SDS011;52962;51.088;3.096;2023-04-06T06:14:04;3.30;;;2.45;;
66163;SDS011;52962;51.088;3.096;2023-04-06T06:16:36;2.65;;;2.38;;
66163;SDS011;52962;51.088;3.096;2023-04-06T06:19:06;3.35;;;2.15;;
66163;SDS011;52962;51.088;3.096;2023-04-06T06:21:36;2.13;;;1.92;;
66163;SDS011;52962;51.088;3.096;2023-04-06T06:24:07;3.33;;;2.55;;
66163;SDS011;52962;51.088;3.096;2023-04-06T06:26:35;2.47;;;2.20;;
66163;SDS011;52962;51.088;3.096;2023-04-06T06:29:06;3.47;;;2.40;;
66163;SDS011;52962;51.088;3.096;2023-04-06T06:31:38;1.83;;;1.73;;
66163;SDS011;52962;51.088;3.096;2023-04-06T06:34:06;3.50;;;2.40;;
66163;SDS011;52962;51.088;3.096;2023-04-06T06:36:36;1.63;;;1.52;;
66163;SDS011;52962;51.088;3.096;2023-04-06T06:39:08;2.00;;;1.45;;
66163;SDS011;52962;51.088;3.096;2023-04-06T06:41:37;2.00;;;1.80;;
66163;SDS011;52962;51.088;3.096;2023-04-06T06:44:06;2.50;;;1.92;;
66163;SDS011;52962;51.088;3.096;2023-04-06T06:49:02;1.58;;;1.48;;
66163;SDS011;52962;51.088;3.096;2023-04-06T06:51:30;2.40;;;2.17;;
66163;SDS011;52962;51.088;3.096;2023-04-06T06:54:00;1.70;;;1.17;;
66163;SDS011;52962;51.088;3.096;2023-04-06T06:56:29;2.42;;;2.22;;
66163;SDS011;52962;51.088;3.096;2023-04-06T06:58:58;2.05;;;1.92;;
66163;SDS011;52962;51.088;3.096;2023-04-06T07:01:26;2.35;;;2.15;;
66163;SDS011;52962;51.088;3.096;2023-04-06T07:03:55;3.22;;;2.70;;
66163;SDS011;52962;51.088;3.096;2023-04-06T07:06:23;2.72;;;1.75;;
66163;SDS011;52962;51.088;3.096;2023-04-06T07:08:51;1.58;;;1.48;;
66163;SDS011;52962;51.088;3.096;2023-04-06T07:11:19;2.08;;;1.90;;
66163;SDS011;52962;51.088;3.096;2023-04-06T07:13:49;2.03;;;1.92;;
66163;SDS011;52962;51.088;3.096;2023-04-06T07:16:17;2.80;;;1.98;;
66163;SDS011;52962;51.088;3.096;2023-04-06T07:18:46;4.53;;;3.00;;
66163;SDS011;52962;51.088;3.096;2023-04-06T07:21:14;3.50;;;3.20;;
66163;SDS011;52962;51.088;3.096;2023-04-06T07:23:42;2.97;;;2.67;;
66163;SDS011;52962;51.088;3.096;2023-04-06T07:26:11;2.58;;;2.38;;
66163;SDS011;52962;51.088;3.096;2023-04-06T07:28:39;3.15;;;2.58;;
66163;SDS011;52962;51.088;3.096;2023-04-06T07:31:10;3.42;;;2.10;;
66163;SDS011;52962;51.088;3.096;2023-04-06T07:33:38;2.25;;;2.05;;
66163;SDS011;52962;51.088;3.096;2023-04-06T07:36:07;2.83;;;2.63;;
66163;SDS011;52962;51.088;3.096;2023-04-06T07:38:35;1.45;;;1.35;;
66163;SDS011;52962;51.088;3.096;2023-04-06T07:41:03;5.78;;;2.97;;
66163;SDS011;52962;51.088;3.096;2023-04-06T07:46:00;3.42;;;3.03;;
66163;SDS011;52962;51.088;3.096;2023-04-06T07:48:30;4.93;;;3.60;;
66163;SDS011;52962;51.088;3.096;2023-04-06T07:51:01;3.88;;;3.45;;
66163;SDS011;52962;51.088;3.096;2023-04-06T07:53:33;4.03;;;3.20;;
66163;SDS011;52962;51.088;3.096;2023-04-06T07:56:02;4.90;;;3.47;;
66163;SDS011;52962;51.088;3.096;2023-04-06T07:58:30;4.65;;;3.85;;
66163;SDS011;52962;51.088;3.096;2023-04-06T08:00:58;2.30;;;2.10;;
66163;SDS011;52962;51.088;3.096;2023-04-06T08:03:26;3.35;;;2.55;;
66163;SDS011;52962;51.088;3.096;2023-04-06T08:05:56;6.00;;;5.32;;
66163;SDS011;52962;51.088;3.096;2023-04-06T08:08:24;5.80;;;3.17;;
66163;SDS011;52962;51.088;3.096;2023-04-06T08:10:52;3.42;;;3.13;;
66163;SDS011;52962;51.088;3.096;2023-04-06T08:13:20;3.58;;;3.20;;
66163;SDS011;52962;51.088;3.096;2023-04-06T08:15:49;3.92;;;3.45;;
66163;SDS011;52962;51.088;3.096;2023-04-06T08:20:45;5.25;;;4.15;;
66163;SDS011;52962;51.088;3.096;2023-04-06T08:23:16;8.20;;;4.90;;
66163;SDS011;52962;51.088;3.096;2023-04-06T08:25:44;7.07;;;5.30;;
66163;SDS011;52962;51.088;3.096;2023-04-06T08:28:13;5.95;;;4.25;;
66163;SDS011;52962;51.088;3.096;2023-04-06T08:33:10;5.05;;;3.42;;
66163;SDS011;52962;51.088;3.096;2023-04-06T08:35:38;7.13;;;5.15;;
66163;SDS011;52962;51.088;3.096;2023-04-06T08:40:39;3.85;;;2.70;;
66163;SDS011;52962;51.088;3.096;2023-04-06T08:43:14;5.03;;;4.38;;
66163;SDS011;52962;51.088;3.096;2023-04-06T08:45:44;5.32;;;4.57;;
66163;SDS011;52962;51.088;3.096;2023-04-06T08:48:13;5.72;;;5.07;;
66163;SDS011;52962;51.088;3.096;2023-04-06T08:50:43;6.47;;;5.88;;
66163;SDS011;52962;51.088;3.096;2023-04-06T08:53:12;6.10;;;4.47;;
66163;SDS011;52962;51.088;3.096;2023-04-06T08:55:42;6.47;;;5.25;;
66163;SDS011;52962;51.088;3.096;2023-04-06T08:58:12;5.15;;;3.03;;
66163;SDS011;52962;51.088;3.096;2023-04-06T09:00:56;3.35;;;2.58;;
66163;SDS011;52962;51.088;3.096;2023-04-06T09:03:25;6.95;;;6.07;;
66163;SDS011;52962;51.088;3.096;2023-04-06T09:05:56;4.40;;;4.00;;
66163;SDS011;52962;51.088;3.096;2023-04-06T09:08:25;7.47;;;6.20;;
66163;SDS011;52962;51.088;3.096;2023-04-06T09:10:55;4.70;;;3.92;;
66163;SDS011;52962;51.088;3.096;2023-04-06T09:13:23;2.05;;;1.85;;
66163;SDS011;52962;51.088;3.096;2023-04-06T09:15:58;7.32;;;6.60;;
66163;SDS011;52962;51.088;3.096;2023-04-06T09:18:30;6.43;;;5.80;;
66163;SDS011;52962;51.088;3.096;2023-04-06T09:21:00;8.32;;;5.28;;
66163;SDS011;52962;51.088;3.096;2023-04-06T09:23:28;5.95;;;5.13;;
66163;SDS011;52962;51.088;3.096;2023-04-06T09:28:44;5.60;;;4.75;;
66163;SDS011;52962;51.088;3.096;2023-04-06T09:31:13;2.80;;;2.58;;
66163;SDS011;52962;51.088;3.096;2023-04-06T09:33:43;5.70;;;4.78;;
66163;SDS011;52962;51.088;3.096;2023-04-06T09:36:12;4.38;;;4.00;;
66163;SDS011;52962;51.088;3.096;2023-04-06T09:38:51;5.70;;;5.20;;
66163;SDS011;52962;51.088;3.096;2023-04-06T09:41:24;5.57;;;4.40;;
66163;SDS011;52962;51.088;3.096;2023-04-06T09:44:00;5.50;;;4.75;;
66163;SDS011;52962;51.088;3.096;2023-04-06T09:46:31;2.65;;;2.40;;
66163;SDS011;52962;51.088;3.096;2023-04-06T09:49:16;5.70;;;3.85;;
66163;SDS011;52962;51.088;3.096;2023-04-06T09:51:46;5.22;;;4.30;;
66163;SDS011;52962;51.088;3.096;2023-04-06T09:54:18;3.78;;;3.47;;
66163;SDS011;52962;51.088;3.096;2023-04-06T09:56:51;6.72;;;5.65;;
66163;SDS011;52962;51.088;3.096;2023-04-06T09:59:26;5.22;;;4.72;;
66163;SDS011;52962;51.088;3.096;2023-04-06T10:02:03;2.42;;;2.22;;
66163;SDS011;52962;51.088;3.096;2023-04-06T10:04:35;3.50;;;3.15;;
66163;SDS011;52962;51.088;3.096;2023-04-06T10:07:08;3.88;;;3.20;;
66163;SDS011;52962;51.088;3.096;2023-04-06T10:09:39;4.53;;;4.13;;
66163;SDS011;52962;51.088;3.096;2023-04-06T10:14:37;4.40;;;4.00;;
66163;SDS011;52962;51.088;3.096;2023-04-06T10:17:07;2.75;;;2.55;;
66163;SDS011;52962;51.088;3.096;2023-04-06T10:19:38;4.32;;;3.92;;
66163;SDS011;52962;51.088;3.096;2023-04-06T10:22:12;4.55;;;4.18;;
66163;SDS011;52962;51.088;3.096;2023-04-06T10:24:50;2.75;;;2.55;;
66163;SDS011;52962;51.088;3.096;2023-04-06T10:27:28;5.78;;;5.28;;
66163;SDS011;52962;51.088;3.096;2023-04-06T10:30:00;4.70;;;4.30;;
66163;SDS011;52962;51.088;3.096;2023-04-06T10:32:33;3.60;;;3.28;;
66163;SDS011;52962;51.088;3.096;2023-04-06T10:35:06;3.78;;;3.47;;
66163;SDS011;52962;51.088;3.096;2023-04-06T10:37:51;4.00;;;3.55;;
66163;SDS011;52962;51.088;3.096;2023-04-06T10:40:21;2.88;;;2.67;;
66163;SDS011;52962;51.088;3.096;2023-04-06T10:42:53;5.80;;;4.30;;
66163;SDS011;52962;51.088;3.096;2023-04-06T10:45:23;2.75;;;2.55;;
66163;SDS011;52962;51.088;3.096;2023-04-06T10:47:53;6.75;;;5.00;;
66163;SDS011;52962;51.088;3.096;2023-04-06T10:50:22;4.40;;;3.92;;
66163;SDS011;52962;51.088;3.096;2023-04-06T10:53:01;3.03;;;2.72;;
66163;SDS011;52962;51.088;3.096;2023-04-06T10:55:30;5.18;;;3.78;;
66163;SDS011;52962;51.088;3.096;2023-04-06T10:58:00;3.08;;;2.83;;
66163;SDS011;52962;51.088;3.096;2023-04-06T11:00:28;2.05;;;1.90;;
66163;SDS011;52962;51.088;3.096;2023-04-06T11:03:15;4.43;;;3.72;;
66163;SDS011;52962;51.088;3.096;2023-04-06T11:05:43;3.95;;;3.65;;
66163;SDS011;52962;51.088;3.096;2023-04-06T11:08:24;5.38;;;4.93;;
66163;SDS011;52962;51.088;3.096;2023-04-06T11:11:03;6.22;;;5.65;;
66163;SDS011;52962;51.088;3.096;2023-04-06T11:13:40;5.60;;;4.93;;
66163;SDS011;52962;51.088;3.096;2023-04-06T11:16:12;8.68;;;5.97;;
66163;SDS011;52962;51.088;3.096;2023-04-06T11:18:48;6.13;;;5.57;;
66163;SDS011;52962;51.088;3.096;2023-04-06T11:21:17;6.50;;;5.82;;
66163;SDS011;52962;51.088;3.096;2023-04-06T11:26:14;6.80;;;6.10;;
66163;SDS011;52962;51.088;3.096;2023-04-06T11:31:11;6.47;;;5.90;;
66163;SDS011;52962;51.088;3.096;2023-04-06T11:33:40;6.18;;;5.57;;
66163;SDS011;52962;51.088;3.096;2023-04-06T11:36:08;5.68;;;5.18;;
66163;SDS011;52962;51.088;3.096;2023-04-06T11:38:38;6.50;;;5.90;;
66163;SDS011;52962;51.088;3.096;2023-04-06T11:41:07;6.00;;;5.43;;
66163;SDS011;52962;51.088;3.096;2023-04-06T11:43:35;3.70;;;3.33;;
66163;SDS011;52962;51.088;3.096;2023-04-06T11:46:04;7.18;;;5.60;;
66163;SDS011;52962;51.088;3.096;2023-04-06T11:48:43;4.85;;;4.32;;
66163;SDS011;52962;51.088;3.096;2023-04-06T11:51:12;4.00;;;3.50;;
66163;SDS011;52962;51.088;3.096;2023-04-06T11:53:43;6.28;;;5.50;;
66163;SDS011;52962;51.088;3.096;2023-04-06T11:56:22;5.53;;;5.03;;
66163;SDS011;52962;51.088;3.096;2023-04-06T11:58:51;6.65;;;5.78;;
66163;SDS011;52962;51.088;3.096;2023-04-06T12:01:21;4.75;;;4.22;;
66163;SDS011;52962;51.088;3.096;2023-04-06T12:03:49;4.68;;;4.18;;
66163;SDS011;52962;51.088;3.096;2023-04-06T12:06:17;4.82;;;4.43;;
66163;SDS011;52962;51.088;3.096;2023-04-06T12:08:46;5.63;;;4.93;;
66163;SDS011;52962;51.088;3.096;2023-04-06T12:11:14;5.70;;;5.05;;
66163;SDS011;52962;51.088;3.096;2023-04-06T12:13:42;5.32;;;4.90;;
66163;SDS011;52962;51.088;3.096;2023-04-06T12:18:40;5.55;;;5.03;;
66163;SDS011;52962;51.088;3.096;2023-04-06T12:21:08;4.65;;;3.83;;
66163;SDS011;52962;51.088;3.096;2023-04-06T12:26:04;4.05;;;3.75;;
66163;SDS011;52962;51.088;3.096;2023-04-06T12:28:38;4.10;;;3.80;;
66163;SDS011;52962;51.088;3.096;2023-04-06T12:33:35;4.75;;;4.35;;
66163;SDS011;52962;51.088;3.096;2023-04-06T12:36:05;4.15;;;3.75;;
66163;SDS011;52962;51.088;3.096;2023-04-06T12:38:39;6.53;;;4.60;;
66163;SDS011;52962;51.088;3.096;2023-04-06T12:41:08;3.63;;;3.33;;
66163;SDS011;52962;51.088;3.096;2023-04-06T12:43:36;10.55;;;4.72;;
66163;SDS011;52962;51.088;3.096;2023-04-06T12:46:04;4.65;;;4.25;;
66163;SDS011;52962;51.088;3.096;2023-04-06T12:48:32;4.65;;;3.83;;
66163;SDS011;52962;51.088;3.096;2023-04-06T12:51:01;3.80;;;3.50;;
66163;SDS011;52962;51.088;3.096;2023-04-06T12:53:32;5.00;;;3.55;;
66163;SDS011;52962;51.088;3.096;2023-04-06T12:56:02;5.95;;;3.80;;
66163;SDS011;52962;51.088;3.096;2023-04-06T12:58:38;3.38;;;3.08;;
66163;SDS011;52962;51.088;3.096;2023-04-06T13:01:08;4.30;;;2.58;;
66163;SDS011;52962;51.088;3.096;2023-04-06T13:03:38;2.47;;;2.28;;
66163;SDS011;52962;51.088;3.096;2023-04-06T13:08:37;2.47;;;2.05;;
66163;SDS011;52962;51.088;3.096;2023-04-06T13:11:06;3.00;;;1.30;;
66163;SDS011;52962;51.088;3.096;2023-04-06T13:13:35;5.55;;;1.20;;
66163;SDS011;52962;51.088;3.096;2023-04-06T13:16:05;3.55;;;1.30;;
66163;SDS011;52962;51.088;3.096;2023-04-06T13:18:34;1.63;;;1.52;;
66163;SDS011;52962;51.088;3.096;2023-04-06T13:21:05;6.70;;;1.80;;
66163;SDS011;52962;51.088;3.096;2023-04-06T13:26:04;1.17;;;0.57;;
66163;SDS011;52962;51.088;3.096;2023-04-06T13:28:33;1.58;;;1.23;;
66163;SDS011;52962;51.088;3.096;2023-04-06T13:31:05;1.45;;;1.35;;
66163;SDS011;52962;51.088;3.096;2023-04-06T13:33:34;2.72;;;1.25;;
66163;SDS011;52962;51.088;3.096;2023-04-06T13:36:03;2.47;;;1.05;;
66163;SDS011;52962;51.088;3.096;2023-04-06T13:38:33;0.95;;;0.85;;
66163;SDS011;52962;51.088;3.096;2023-04-06T13:41:02;3.10;;;1.23;;
66163;SDS011;52962;51.088;3.096;2023-04-06T13:43:31;1.50;;;1.40;;
66163;SDS011;52962;51.088;3.096;2023-04-06T13:45:59;3.88;;;2.08;;
66163;SDS011;52962;51.088;3.096;2023-04-06T13:48:28;3.13;;;1.30;;
66163;SDS011;52962;51.088;3.096;2023-04-06T13:50:57;3.13;;;1.55;;
66163;SDS011;52962;51.088;3.096;2023-04-06T13:55:53;8.20;;;1.75;;
66163;SDS011;52962;51.088;3.096;2023-04-06T13:58:23;3.33;;;1.75;;
66163;SDS011;52962;51.088;3.096;2023-04-06T14:00:51;10.05;;;1.70;;
66163;SDS011;52962;51.088;3.096;2023-04-06T14:03:19;4.53;;;1.48;;
66163;SDS011;52962;51.088;3.096;2023-04-06T14:08:15;2.53;;;0.68;;
66163;SDS011;52962;51.088;3.096;2023-04-06T14:10:43;2.58;;;1.40;;
66163;SDS011;52962;51.088;3.096;2023-04-06T14:15:41;1.60;;;1.50;;
66163;SDS011;52962;51.088;3.096;2023-04-06T14:18:09;3.67;;;1.33;;
66163;SDS011;52962;51.088;3.096;2023-04-06T14:23:05;6.03;;;1.42;;
66163;SDS011;52962;51.088;3.096;2023-04-06T14:25:33;6.07;;;2.15;;
66163;SDS011;52962;51.088;3.096;2023-04-06T14:28:01;2.08;;;1.48;;
66163;SDS011;52962;51.088;3.096;2023-04-06T14:30:29;8.05;;;1.80;;
66163;SDS011;52962;51.088;3.096;2023-04-06T14:35:27;4.07;;;1.15;;
66163;SDS011;52962;51.088;3.096;2023-04-06T14:37:57;5.90;;;1.42;;
66163;SDS011;52962;51.088;3.096;2023-04-06T14:40:25;4.25;;;1.77;;
66163;SDS011;52962;51.088;3.096;2023-04-06T14:42:53;6.93;;;1.92;;
66163;SDS011;52962;51.088;3.096;2023-04-06T14:45:22;4.65;;;1.30;;
66163;SDS011;52962;51.088;3.096;2023-04-06T14:47:50;3.42;;;1.95;;
66163;SDS011;52962;51.088;3.096;2023-04-06T14:50:20;2.22;;;1.63;;
66163;SDS011;52962;51.088;3.096;2023-04-06T14:52:48;10.52;;;2.40;;
66163;SDS011;52962;51.088;3.096;2023-04-06T14:55:16;15.90;;;3.10;;
66163;SDS011;52962;51.088;3.096;2023-04-06T14:57:44;11.35;;;2.58;;
66163;SDS011;52962;51.088;3.096;2023-04-06T15:00:12;13.20;;;2.85;;
66163;SDS011;52962;51.088;3.096;2023-04-06T15:02:41;7.65;;;2.20;;
66163;SDS011;52962;51.088;3.096;2023-04-06T15:05:10;5.90;;;2.75;;
66163;SDS011;52962;51.088;3.096;2023-04-06T15:07:40;10.73;;;2.42;;
66163;SDS011;52962;51.088;3.096;2023-04-06T15:10:09;5.30;;;2.10;;
66163;SDS011;52962;51.088;3.096;2023-04-06T15:12:38;8.77;;;2.78;;
66163;SDS011;52962;51.088;3.096;2023-04-06T15:15:06;1.90;;;1.73;;
66163;SDS011;52962;51.088;3.096;2023-04-06T15:17:34;8.68;;;2.78;;
66163;SDS011;52962;51.088;3.096;2023-04-06T15:20:03;15.63;;;3.25;;
66163;SDS011;52962;51.088;3.096;2023-04-06T15:22:31;8.48;;;2.75;;
66163;SDS011;52962;51.088;3.096;2023-04-06T15:25:01;9.30;;;3.20;;
66163;SDS011;52962;51.088;3.096;2023-04-06T15:27:30;4.13;;;2.78;;
66163;SDS011;52962;51.088;3.096;2023-04-06T15:29:58;13.68;;;3.30;;
66163;SDS011;52962;51.088;3.096;2023-04-06T15:32:26;6.63;;;2.20;;
66163;SDS011;52962;51.088;3.096;2023-04-06T15:37:23;6.43;;;2.97;;
66163;SDS011;52962;51.088;3.096;2023-04-06T15:39:51;6.72;;;3.03;;
66163;SDS011;52962;51.088;3.096;2023-04-06T15:42:21;10.05;;;3.67;;
66163;SDS011;52962;51.088;3.096;2023-04-06T15:44:49;11.07;;;3.30;;
66163;SDS011;52962;51.088;3.096;2023-04-06T15:47:17;13.80;;;3.63;;
66163;SDS011;52962;51.088;3.096;2023-04-06T15:52:13;5.75;;;2.95;;
66163;SDS011;52962;51.088;3.096;2023-04-06T15:54:42;9.70;;;3.70;;
66163;SDS011;52962;51.088;3.096;2023-04-06T15:57:09;10.60;;;3.83;;
66163;SDS011;52962;51.088;3.096;2023-04-06T15:59:39;6.15;;;3.22;;
66163;SDS011;52962;51.088;3.096;2023-04-06T16:02:07;10.55;;;4.07;;
66163;SDS011;52962;51.088;3.096;2023-04-06T16:04:35;8.85;;;3.45;;
66163;SDS011;52962;51.088;3.096;2023-04-06T16:09:31;12.25;;;3.33;;
66163;SDS011;52962;51.088;3.096;2023-04-06T16:11:59;3.35;;;2.30;;
66163;SDS011;52962;51.088;3.096;2023-04-06T16:14:27;7.15;;;2.63;;